Skip Navigation LinksHome page > Weather > Current weather Skip Navigation Links

Current Weather

Boscombe Down, United Kingdom

For information only: do not use for flight planning or navigation.
Latest weather
Observation time Monday, October 18, 2021 9:50 PM BST
Local time Monday, October 18, 2021 10:14 PM BST
Flight conditions Low Instrument Meteorological Conditions
Winds
Wind direction South-Southwest (210°)
Wind speed 8 mph
Visibility 2.5 mi.
Present weather mist
Sky condition
Ceiling 200 ft. broken clouds
Cloud layer broken clouds 200 ft.
Cloud layer broken clouds 900 ft.
Temperature 61°F
Dewpoint 61°F
Altimeter 29.94 in.Hg
Derived measurements
Relative humidity 100%
Density altitude 342 ft.
Remarks
Fully automated report.
METAR EGDM 182050Z AUTO 21007KT 4000 BR BKN002/// BKN009/// 16/16 Q1014

Settings

Location code

InnerDrive.Weather 4.0.6770.0 Release CLR 4.0.30319.42000
Copyright ©2018 Inner Drive Technology. All rights reserved. Portions Copyright ©1986-2018 David Braverman.

Find weather

Site navigation


Skip Navigation Links

Place info

Page info

PayPal - The safer, easier way to pay online!

Return home.

Copyright ©2021 Inner Drive Technology. Purveyors of fine, hand-crafted computer software. Page printed 2021-10-18T21:14:27 UTC.